Oosterschelde — PGNP — position and weather

sailwx.info

Track history (hours):
 
Tides and Currents Weather Stations Pressure Air Temp Water Temp Dewpoint Dewpoint Depression Visibility Wind Speed Wind Dir Waves Ship Positions

Oosterschelde (Netherlands)

Ship's website: http://www.oosterschelde.nl/indexuk.htm

Last reported at 2018-Aug-10 03:12 UTC. Time now 2018-Aug-14 07:05 UTC.
Position N 56°30' W 005°42'.

Length 49 m; draft 2.9 m.

Type: Sailing vessel. MMSI: 246010985.

Date/timePositionNaut miles runAvg speedWind from/ knotsBaromVisibWave heightAir tempDewpointWater temp
2018-Aug-10 03:12N 56°30' W 005°42'1 5.6
2018-Aug-10 02:59N 56°29' W 005°40'4 7.0
2018-Aug-10 02:28N 56°26' W 005°38'4 0.7
2018-Aug-09 20:10N 56°22' W 005°33'1 6.6
2018-Aug-09 20:00N 56°23' W 005°32'3 0.1
2018-Aug-08 06:46N 56°25' W 005°30'0 0.0
2018-Aug-08 06:28N 56°25' W 005°30'0 0.0
2018-Aug-07 15:25N 56°25' W 005°30'0 0.1
2018-Aug-07 14:55N 56°25' W 005°30'1 1.6
2018-Aug-07 14:30N 56°26' W 005°30'3 7.0
2018-Aug-07 14:01N 56°27' W 005°36'2 3.6
2018-Aug-07 13:30N 56°28' W 005°39'  
2018-Aug-04 13:26N 55°43' W 005°54'3 6.4
2018-Aug-04 13:00N 55°41' W 005°55'3 6.0
2018-Aug-04 12:30N 55°38' W 005°56'2 5.0
2018-Aug-04 12:00N 55°35' W 005°56'2 3.2
2018-Aug-04 11:30N 55°34' W 005°56'1 2.5
2018-Aug-04 10:59N 55°32' W 005°56'1 2.7
2018-Aug-04 10:30N 55°31' W 005°57'2 3.5
2018-Aug-04 10:00N 55°29' W 005°56'2 3.8
2018-Aug-04 09:30N 55°28' W 005°55'2 4.1
2018-Aug-04 09:00N 55°26' W 005°55'2 3.8
2018-Aug-04 08:30N 55°24' W 005°54'3 5.5
2018-Aug-04 08:00N 55°21' W 005°53'5 9.7
2018-Aug-04 07:28N 55°16' W 005°52'4 9.1
2018-Aug-04 07:00N 55°12' W 005°50'26 7.8
2018-Aug-04 03:38N 54°47' W 005°32'1 6.5
2018-Aug-04 03:30N 54°47' W 005°32'3 6.1
2018-Aug-04 03:00N 54°44' W 005°30'3 5.5
2018-Aug-04 02:30N 54°41' W 005°29'2 2.9
2018-Aug-04 01:53N 54°40' W 005°31'0 0.0
2018-Aug-04 01:26N 54°40' W 005°31'0 0.0
2018-Aug-04 00:58N 54°40' W 005°31'0 0.0
2018-Aug-04 00:31N 54°40' W 005°31'0 0.0
2018-Aug-04 00:00N 54°40' W 005°31'0 0.0
2018-Aug-03 23:30N 54°40' W 005°31'0 0.0
2018-Aug-03 22:55N 54°40' W 005°31'0 0.1
2018-Aug-03 22:26N 54°40' W 005°31'0 0.0
2018-Aug-03 22:00N 54°40' W 005°31'0 0.1
2018-Aug-03 21:29N 54°40' W 005°31'3 6.0
2018-Aug-03 20:59N 54°38' W 005°27'5 7.3
2018-Aug-03 20:16N 54°34' W 005°20'135 2.7
2018-Aug-01 18:18N 52°21' W 005°53'2 5.9
2018-Aug-01 17:52N 52°18' W 005°55'3 5.5
2018-Aug-01 17:23N 52°16' W 005°58'2 5.7
2018-Aug-01 17:00N 52°14' W 005°60'3 5.2
2018-Aug-01 16:29N 52°12' W 006°02'3 5.2
2018-Aug-01 16:00N 52°10' W 006°04'3 6.1
2018-Aug-01 15:30N 52°07' W 006°07'3 5.9
2018-Aug-01 15:00N 52°05' W 006°10'3 5.8
2018-Aug-01 14:30N 52°03' W 006°12'6 6.2
2018-Aug-01 13:30N 51°57' W 006°18'3 5.8
2018-Aug-01 12:58N 51°54' W 006°18'185 5.5
2018-Jul-31 03:24N 48°54' W 005°11'  
Track history (hours):
 
Tides and Currents Weather Stations Pressure Air Temp Water Temp Dewpoint Dewpoint Depression Visibility Wind Speed Wind Dir Waves Ship Positions

Oosterschelde (Netherlands)

Ship's website: http://www.oosterschelde.nl/indexuk.htm

Last reported at 2018-Aug-10 03:12 UTC. Time now 2018-Aug-14 07:05 UTC.
Position N 56°30' W 005°42'.

Length 49 m; draft 2.9 m.

Type: Sailing vessel. MMSI: 246010985.

Date/timePositionNaut miles runAvg speedWind from/ knotsBaromVisibWave heightAir tempDewpointWater temp
2018-Aug-10 03:12N 56°30' W 005°42'1 5.6
2018-Aug-10 02:59N 56°29' W 005°40'4 7.0
2018-Aug-10 02:28N 56°26' W 005°38'4 0.7
2018-Aug-09 20:10N 56°22' W 005°33'1 6.6
2018-Aug-09 20:00N 56°23' W 005°32'3 0.1
2018-Aug-08 06:46N 56°25' W 005°30'0 0.0
2018-Aug-08 06:28N 56°25' W 005°30'0 0.0
2018-Aug-07 15:25N 56°25' W 005°30'0 0.1
2018-Aug-07 14:55N 56°25' W 005°30'1 1.6
2018-Aug-07 14:30N 56°26' W 005°30'3 7.0
2018-Aug-07 14:01N 56°27' W 005°36'2 3.6
2018-Aug-07 13:30N 56°28' W 005°39'  
2018-Aug-04 13:26N 55°43' W 005°54'3 6.4
2018-Aug-04 13:00N 55°41' W 005°55'3 6.0
2018-Aug-04 12:30N 55°38' W 005°56'2 5.0
2018-Aug-04 12:00N 55°35' W 005°56'2 3.2
2018-Aug-04 11:30N 55°34' W 005°56'1 2.5
2018-Aug-04 10:59N 55°32' W 005°56'1 2.7
2018-Aug-04 10:30N 55°31' W 005°57'2 3.5
2018-Aug-04 10:00N 55°29' W 005°56'2 3.8
2018-Aug-04 09:30N 55°28' W 005°55'2 4.1
2018-Aug-04 09:00N 55°26' W 005°55'2 3.8
2018-Aug-04 08:30N 55°24' W 005°54'3 5.5
2018-Aug-04 08:00N 55°21' W 005°53'5 9.7
2018-Aug-04 07:28N 55°16' W 005°52'4 9.1
2018-Aug-04 07:00N 55°12' W 005°50'26 7.8
2018-Aug-04 03:38N 54°47' W 005°32'1 6.5
2018-Aug-04 03:30N 54°47' W 005°32'3 6.1
2018-Aug-04 03:00N 54°44' W 005°30'3 5.5
2018-Aug-04 02:30N 54°41' W 005°29'2 2.9
2018-Aug-04 01:53N 54°40' W 005°31'0 0.0
2018-Aug-04 01:26N 54°40' W 005°31'0 0.0
2018-Aug-04 00:58N 54°40' W 005°31'0 0.0
2018-Aug-04 00:31N 54°40' W 005°31'0 0.0
2018-Aug-04 00:00N 54°40' W 005°31'0 0.0
2018-Aug-03 23:30N 54°40' W 005°31'0 0.0
2018-Aug-03 22:55N 54°40' W 005°31'0 0.1
2018-Aug-03 22:26N 54°40' W 005°31'0 0.0
2018-Aug-03 22:00N 54°40' W 005°31'0 0.1
2018-Aug-03 21:29N 54°40' W 005°31'3 6.0
2018-Aug-03 20:59N 54°38' W 005°27'5 7.3
2018-Aug-03 20:16N 54°34' W 005°20'135 2.7
2018-Aug-01 18:18N 52°21' W 005°53'2 5.9
2018-Aug-01 17:52N 52°18' W 005°55'3 5.5
2018-Aug-01 17:23N 52°16' W 005°58'2 5.7
2018-Aug-01 17:00N 52°14' W 005°60'3 5.2
2018-Aug-01 16:29N 52°12' W 006°02'3 5.2
2018-Aug-01 16:00N 52°10' W 006°04'3 6.1
2018-Aug-01 15:30N 52°07' W 006°07'3 5.9
2018-Aug-01 15:00N 52°05' W 006°10'3 5.8
2018-Aug-01 14:30N 52°03' W 006°12'6 6.2
2018-Aug-01 13:30N 51°57' W 006°18'3 5.8
2018-Aug-01 12:58N 51°54' W 006°18'185 5.5
2018-Jul-31 03:24N 48°54' W 005°11'  

Dump ship's entire track history